createdAt,value
2019-02-23T00:00:38.962Z,90.06
2019-02-23T00:01:38.900Z,89.07
2019-02-23T00:02:38.842Z,87.98
2019-02-23T00:03:38.818Z,87.98
2019-02-23T00:04:38.758Z,87.84
2019-02-23T00:05:38.668Z,87.65
2019-02-23T00:06:38.610Z,87.74
2019-02-23T00:07:38.600Z,87.84
2019-02-23T00:08:38.501Z,86.52
2019-02-23T00:09:38.466Z,85.95
2019-02-23T00:10:38.379Z,85.95
2019-02-23T00:11:38.323Z,85.95
2019-02-23T00:12:38.263Z,86.52
2019-02-23T00:13:38.204Z,85.85
2019-02-23T00:14:38.186Z,85.66
2019-02-23T00:15:38.091Z,85.76
2019-02-23T00:16:38.028Z,85.66
2019-02-23T00:17:37.969Z,85.19
2019-02-23T00:18:37.915Z,84.81
2019-02-23T00:19:37.893Z,83.97
2019-02-23T00:20:37.804Z,84.16
2019-02-23T00:21:37.737Z,84.63
2019-02-23T00:22:37.678Z,83.78
2019-02-23T00:23:37.618Z,84.63
2019-02-23T00:24:37.602Z,84.63
2019-02-23T00:25:37.503Z,84.53
2019-02-23T00:26:37.444Z,84.81
2019-02-23T00:27:37.386Z,85.47
2019-02-23T00:28:37.328Z,85.76
2019-02-23T00:29:37.299Z,86.71
2019-02-23T00:30:37.209Z,86.71
2019-02-23T00:31:37.151Z,86.80
2019-02-23T00:32:37.124Z,86.42
2019-02-23T00:33:37.078Z,86.04
2019-02-23T00:34:36.979Z,85.57
2019-02-23T00:35:36.916Z,85.38
2019-02-23T00:36:36.892Z,86.23
2019-02-23T00:37:36.801Z,85.76
2019-02-23T00:38:36.741Z,85.57
2019-02-23T00:39:36.681Z,86.04
2019-02-23T00:40:36.627Z,86.52
2019-02-23T00:41:36.596Z,86.71
2019-02-23T00:42:36.530Z,86.04
2019-02-23T00:43:36.450Z,86.52
2019-02-23T00:44:36.423Z,85.66
2019-02-23T00:45:36.331Z,86.52
2019-02-23T00:46:36.313Z,86.23
2019-02-23T00:47:36.220Z,86.61
2019-02-23T00:48:36.153Z,86.90
2019-02-23T00:49:36.745Z,87.55
2019-02-23T00:50:36.036Z,86.90
2019-02-23T00:51:36.023Z,86.61
2019-02-23T00:52:35.923Z,86.52
2019-02-23T00:53:35.863Z,86.42
2019-02-23T00:54:35.802Z,85.66
2019-02-23T00:55:35.746Z,85.00
2019-02-23T00:56:35.716Z,83.30
2019-02-23T00:57:35.627Z,82.79
2019-02-23T00:58:35.568Z,83.40
2019-02-23T00:59:35.508Z,83.40
2019-02-23T01:00:35.481Z,84.16
2019-02-23T01:01:35.391Z,84.53
2019-02-23T01:02:35.331Z,85.19
2019-02-23T01:03:35.297Z,84.81
2019-02-23T01:04:35.217Z,83.40
2019-02-23T01:05:35.154Z,82.45
2019-02-23T01:06:35.097Z,82.07
2019-02-23T01:07:35.052Z,82.64
2019-02-23T01:08:35.011Z,83.11
2019-02-23T01:09:34.921Z,82.54
2019-02-23T01:10:34.908Z,82.83
2019-02-23T01:11:34.800Z,82.83
2019-02-23T01:12:34.742Z,84.06
2019-02-23T01:13:34.682Z,82.64
2019-02-23T01:14:34.626Z,81.88
2019-02-23T01:15:34.597Z,81.41
2019-02-23T01:16:34.507Z,81.98
2019-02-23T01:17:34.452Z,83.11
2019-02-23T01:18:34.388Z,84.72
2019-02-23T01:19:34.362Z,85.66
2019-02-23T01:20:34.270Z,87.08
2019-02-23T01:21:34.212Z,88.03
2019-02-23T01:22:34.153Z,87.61
2019-02-23T01:23:34.095Z,86.94
2019-02-23T01:24:34.070Z,86.10
2019-02-23T01:25:34.007Z,85.81
2019-02-23T01:26:33.924Z,83.83
2019-02-23T01:27:33.862Z,83.17
2019-02-23T01:28:33.800Z,83.26
2019-02-23T01:29:33.742Z,83.07
2019-02-23T01:30:33.713Z,82.41
2019-02-23T01:31:33.623Z,82.41
2019-02-23T01:32:33.565Z,82.41
2019-02-23T01:33:33.505Z,82.69
2019-02-23T01:34:33.445Z,82.50
2019-02-23T01:35:33.419Z,82.31
2019-02-23T01:36:33.330Z,83.26
2019-02-23T01:37:33.300Z,83.17
2019-02-23T01:38:33.240Z,83.45
2019-02-23T01:39:33.151Z,83.07
2019-02-23T01:40:33.094Z,82.83
2019-02-23T01:41:33.030Z,83.40
2019-02-23T01:42:32.971Z,82.07
2019-02-23T01:43:32.944Z,83.26
2019-02-23T01:44:32.856Z,84.20
2019-02-23T01:45:42.095Z,84.58
2019-02-23T01:46:32.735Z,84.81
2019-02-23T01:47:32.677Z,85.24
2019-02-23T01:48:32.650Z,84.68
2019-02-23T01:49:32.560Z,83.97
2019-02-23T01:50:32.533Z,84.49
2019-02-23T01:51:32.440Z,84.96
2019-02-23T01:52:32.382Z,84.86
2019-02-23T01:53:32.324Z,85.15
2019-02-23T01:54:32.267Z,84.86
2019-02-23T01:55:32.236Z,85.24
2019-02-23T01:56:32.147Z,84.77
2019-02-23T01:57:32.087Z,83.92
2019-02-23T01:58:32.029Z,83.07
2019-02-23T01:59:31.969Z,81.93
2019-02-23T02:00:31.942Z,82.03
2019-02-23T02:01:31.852Z,81.93
2019-02-23T02:02:31.792Z,82.69
2019-02-23T02:03:31.732Z,83.07
2019-02-23T02:04:31.707Z,83.92
2019-02-23T02:05:31.652Z,82.79
2019-02-23T02:06:33.569Z,83.36
2019-02-23T02:07:31.497Z,83.07
2019-02-23T02:08:31.438Z,83.73
2019-02-23T02:09:31.375Z,82.79
2019-02-23T02:10:31.351Z,81.27
2019-02-23T02:11:31.260Z,78.34
2019-02-23T02:12:31.201Z,76.83
2019-02-23T02:13:31.142Z,77.12
2019-02-23T02:14:31.105Z,78.44
2019-02-23T02:15:31.052Z,78.81
2019-02-23T02:16:30.993Z,78.91
2019-02-23T02:17:30.904Z,79.10
2019-02-23T02:18:30.845Z,80.52
2019-02-23T02:19:30.788Z,81.65
2019-02-23T02:20:30.729Z,82.22
2019-02-23T02:21:30.701Z,82.22
2019-02-23T02:22:30.606Z,84.01
2019-02-23T02:23:30.546Z,84.86
2019-02-23T02:24:30.489Z,85.15
2019-02-23T02:25:30.459Z,86.19
2019-02-23T02:26:30.373Z,86.38
2019-02-23T02:27:30.342Z,86.29
2019-02-23T02:28:30.252Z,86.29
2019-02-23T02:29:30.192Z,86.38
2019-02-23T02:30:30.131Z,86.29
2019-02-23T02:31:30.075Z,85.15
2019-02-23T02:32:30.047Z,85.43
2019-02-23T02:33:29.958Z,84.58
2019-02-23T02:34:29.897Z,84.58
2019-02-23T02:35:29.869Z,84.58
2019-02-23T02:36:29.787Z,85.24
2019-02-23T02:37:29.747Z,86.00
2019-02-23T02:38:29.657Z,86.66
2019-02-23T02:39:29.600Z,87.13
2019-02-23T02:40:29.539Z,87.61
2019-02-23T02:41:29.521Z,87.23
2019-02-23T02:42:29.419Z,88.27
2019-02-23T02:43:29.360Z,88.65
2019-02-23T02:44:29.300Z,88.93
2019-02-23T02:45:29.241Z,90.06
2019-02-23T02:46:29.216Z,90.35
2019-02-23T02:47:29.121Z,90.54
2019-02-23T02:48:29.064Z,89.78
2019-02-23T02:49:29.005Z,89.97
2019-02-23T02:50:28.977Z,90.25
2019-02-23T02:51:28.885Z,91.29
2019-02-23T02:52:28.827Z,91.77
2019-02-23T02:53:28.764Z,91.91
2019-02-23T02:54:28.739Z,92.10
2019-02-23T02:55:28.650Z,92.24
2019-02-23T02:56:28.591Z,92.61
2019-02-23T02:57:28.531Z,93.28
2019-02-23T02:58:28.499Z,93.18
2019-02-23T02:59:28.414Z,93.51
2019-02-23T03:00:28.349Z,94.22
2019-02-23T03:01:28.323Z,94.89
2019-02-23T03:02:28.237Z,94.84
2019-02-23T03:03:28.171Z,95.12
2019-02-23T03:04:28.111Z,95.36
2019-02-23T03:05:28.061Z,96.07
2019-02-23T03:06:28.026Z,96.40
2019-02-23T03:07:27.966Z,96.49
2019-02-23T03:08:27.874Z,96.73
2019-02-23T03:09:27.825Z,97.01
2019-02-23T03:10:27.757Z,97.77
2019-02-23T03:11:27.697Z,97.67
2019-02-23T03:12:27.667Z,97.67
2019-02-23T03:13:27.583Z,97.67
2019-02-23T03:14:27.520Z,97.77
2019-02-23T03:15:27.457Z,97.77
2019-02-23T03:16:27.398Z,97.77
2019-02-23T03:17:27.368Z,97.77
2019-02-23T03:18:27.308Z,98.33
2019-02-23T03:19:27.219Z,98.71
2019-02-23T03:20:36.355Z,98.33
2019-02-23T03:21:27.100Z,98.33
2019-02-23T03:22:27.039Z,98.05
2019-02-23T03:23:27.011Z,97.91
2019-02-23T03:24:26.954Z,99.09
2019-02-23T03:25:26.861Z,99.99
2019-02-23T03:26:26.800Z,99.99
2019-02-23T03:27:26.740Z,99.99
2019-02-23T03:28:26.711Z,99.99
2019-02-23T03:29:26.625Z,99.99
2019-02-23T03:30:26.593Z,99.99
2019-02-23T03:31:26.503Z,99.99
2019-02-23T03:32:26.443Z,99.99
2019-02-23T03:33:26.415Z,99.99
2019-02-23T03:34:26.323Z,99.99
2019-02-23T03:35:26.262Z,99.99
2019-02-23T03:36:26.234Z,99.99
2019-02-23T03:37:26.141Z,99.99
2019-02-23T03:38:26.082Z,99.99
2019-02-23T03:39:26.056Z,99.99
2019-02-23T03:40:25.964Z,99.99
2019-02-23T03:41:25.937Z,99.99
2019-02-23T03:42:25.846Z,99.99
2019-02-23T03:43:25.786Z,99.99
2019-02-23T03:44:25.726Z,99.99
2019-02-23T03:45:25.699Z,99.99
2019-02-23T03:46:25.605Z,99.99
2019-02-23T03:47:25.546Z,99.99
2019-02-23T03:48:25.519Z,99.99
2019-02-23T03:49:25.426Z,99.99
2019-02-23T03:50:25.398Z,99.99
2019-02-23T03:51:25.307Z,99.99
2019-02-23T03:52:25.280Z,99.99
2019-02-23T03:53:25.187Z,99.99
2019-02-23T03:54:25.126Z,99.99
2019-02-23T03:55:25.072Z,99.99
2019-02-23T03:56:25.013Z,99.99
2019-02-23T03:57:24.980Z,99.99
2019-02-23T03:58:24.887Z,99.99
2019-02-23T03:59:24.843Z,99.99
2019-02-23T04:00:24.800Z,99.99
2019-02-23T04:01:24.716Z,99.99
2019-02-23T04:02:24.646Z,99.99
2019-02-23T04:03:24.618Z,99.99
2019-02-23T04:04:24.527Z,99.99
2019-02-23T04:05:24.498Z,99.99
2019-02-23T04:06:24.410Z,99.99
2019-02-23T04:07:24.348Z,99.99
2019-02-23T04:08:24.289Z,99.99
2019-02-23T04:09:24.226Z,99.99
2019-02-23T04:10:24.202Z,99.99
2019-02-23T04:11:24.109Z,99.99
2019-02-23T04:12:24.050Z,99.99
2019-02-23T04:13:24.017Z,99.99
2019-02-23T04:14:23.929Z,99.99
2019-02-23T04:15:23.867Z,99.99
2019-02-23T04:16:23.840Z,99.99
2019-02-23T04:17:23.749Z,99.99
2019-02-23T04:18:23.691Z,99.99
2019-02-23T04:19:23.626Z,99.99
2019-02-23T04:20:23.571Z,99.99
2019-02-23T04:21:23.540Z,99.99
2019-02-23T04:22:23.449Z,99.99
2019-02-23T04:23:23.420Z,99.99
2019-02-23T04:24:23.333Z,99.99
2019-02-23T04:25:23.268Z,99.99
2019-02-23T04:26:23.208Z,99.99
2019-02-23T04:27:23.185Z,99.99
2019-02-23T04:28:23.098Z,99.99
2019-02-23T04:29:23.028Z,99.99
2019-02-23T04:30:22.970Z,99.99
2019-02-23T04:31:22.943Z,99.99
2019-02-23T04:32:22.860Z,99.99
2019-02-23T04:33:22.791Z,99.99
2019-02-23T04:34:22.729Z,99.99
2019-02-23T04:35:22.709Z,99.99
2019-02-23T04:36:22.610Z,99.99
2019-02-23T04:37:22.547Z,99.99
2019-02-23T04:38:22.488Z,99.99
2019-02-23T04:39:22.428Z,99.99
2019-02-23T04:40:22.406Z,99.99
2019-02-23T04:41:22.308Z,99.99
2019-02-23T04:42:22.250Z,99.99
2019-02-23T04:43:22.195Z,99.99
2019-02-23T04:44:22.161Z,99.99
2019-02-23T04:45:22.067Z,99.99
2019-02-23T04:46:22.043Z,99.99
2019-02-23T04:47:21.950Z,99.99
2019-02-23T04:48:21.889Z,99.99
2019-02-23T04:49:21.835Z,99.99
2019-02-23T04:50:21.770Z,99.99
2019-02-23T04:51:21.746Z,99.99
2019-02-23T04:52:21.653Z,99.99
2019-02-23T04:53:21.595Z,99.99
2019-02-23T04:54:21.528Z,99.99
2019-02-23T04:55:21.471Z,99.99
2019-02-23T04:56:21.442Z,99.99
2019-02-23T04:57:21.345Z,99.99
2019-02-23T04:58:21.287Z,99.99
2019-02-23T04:59:21.229Z,99.99
2019-02-23T05:00:21.199Z,99.99
2019-02-23T05:01:21.106Z,99.99
2019-02-23T05:02:21.084Z,99.99
2019-02-23T05:03:20.988Z,99.99
2019-02-23T05:04:20.926Z,99.99
2019-02-23T05:05:20.871Z,99.99
2019-02-23T05:06:20.805Z,99.99
2019-02-23T05:07:20.781Z,99.99
2019-02-23T05:08:20.686Z,99.99
2019-02-23T05:09:20.627Z,99.99
2019-02-23T05:10:20.567Z,99.99
2019-02-23T05:11:20.504Z,99.99
2019-02-23T05:12:20.509Z,99.99
2019-02-23T05:13:20.385Z,99.99
2019-02-23T05:14:20.359Z,99.99
2019-02-23T05:15:20.265Z,99.99
2019-02-23T05:16:20.204Z,99.99
2019-02-23T05:17:20.149Z,99.99
2019-02-23T05:18:20.086Z,99.99
2019-02-23T05:19:20.063Z,99.99
2019-02-23T05:20:19.966Z,99.99
2019-02-23T05:21:26.220Z,99.99
2019-02-23T05:22:19.843Z,99.99
2019-02-23T05:23:19.784Z,99.99
2019-02-23T05:24:19.754Z,99.99
2019-02-23T05:25:19.664Z,99.99
2019-02-23T05:26:19.601Z,99.99
2019-02-23T05:27:19.574Z,99.99
2019-02-23T05:28:19.516Z,99.99
2019-02-23T05:29:19.421Z,99.99
2019-02-23T05:30:19.363Z,99.99
2019-02-23T05:31:22.093Z,99.99
2019-02-23T05:32:19.285Z,99.99
2019-02-23T05:33:19.199Z,99.99
2019-02-23T05:34:19.122Z,99.99
2019-02-23T05:35:19.061Z,99.99
2019-02-23T05:36:19.001Z,99.99
2019-02-23T05:37:18.972Z,99.99
2019-02-23T05:38:18.882Z,99.99
2019-02-23T05:39:18.823Z,99.99
2019-02-23T05:40:18.763Z,99.99
2019-02-23T05:41:18.732Z,99.99
2019-02-23T05:42:18.648Z,99.99
2019-02-23T05:43:18.579Z,99.99
2019-02-23T05:44:18.518Z,99.99
2019-02-23T05:45:18.462Z,99.99
2019-02-23T05:46:18.440Z,99.99
2019-02-23T05:47:18.342Z,99.99
2019-02-23T05:48:18.283Z,99.99
2019-02-23T05:49:18.219Z,99.99
2019-02-23T05:50:18.159Z,99.99
2019-02-23T05:51:18.153Z,99.99
2019-02-23T05:52:18.039Z,99.99
2019-02-23T05:53:17.976Z,99.99
2019-02-23T05:54:17.923Z,99.99
2019-02-23T05:55:17.863Z,99.99
2019-02-23T05:56:17.831Z,99.99
2019-02-23T05:57:17.751Z,99.99
2019-02-23T05:58:17.681Z,99.99
2019-02-23T05:59:17.616Z,99.99
2019-02-23T06:00:17.560Z,99.99
2019-02-23T06:01:17.520Z,99.99
2019-02-23T06:02:17.437Z,99.99
2019-02-23T06:03:17.376Z,99.99
2019-02-23T06:04:17.317Z,99.99
2019-02-23T06:05:17.258Z,99.99
2019-02-23T06:06:17.226Z,99.99
2019-02-23T06:07:17.136Z,99.99
2019-02-23T06:08:17.076Z,99.99
2019-02-23T06:09:17.050Z,99.99
2019-02-23T06:10:17.022Z,99.99
2019-02-23T06:11:16.897Z,99.99
2019-02-23T06:12:16.836Z,99.99
2019-02-23T06:13:16.805Z,99.99
2019-02-23T06:14:16.857Z,99.99
2019-02-23T06:15:16.657Z,99.99
2019-02-23T06:16:16.596Z,99.99
2019-02-23T06:17:16.571Z,99.99
2019-02-23T06:18:16.475Z,99.99
2019-02-23T06:19:16.415Z,99.99
2019-02-23T06:20:16.354Z,99.99
2019-02-23T06:21:16.297Z,99.99
2019-02-23T06:22:16.354Z,99.99
2019-02-23T06:23:16.173Z,99.99
2019-02-23T06:24:16.116Z,99.99
2019-02-23T06:25:16.057Z,99.99
2019-02-23T06:26:15.994Z,99.99
2019-02-23T06:27:15.967Z,99.99
2019-02-23T06:28:15.912Z,99.99
2019-02-23T06:29:15.817Z,99.99
2019-02-23T06:30:18.326Z,99.99
2019-02-23T06:31:15.694Z,99.99
2019-02-23T06:32:15.638Z,99.99
2019-02-23T06:33:15.613Z,99.99
2019-02-23T06:34:16.737Z,99.99
2019-02-23T06:35:15.457Z,99.99
2019-02-23T06:36:15.394Z,99.99
2019-02-23T06:37:15.332Z,99.99
2019-02-23T06:38:15.304Z,99.99
2019-02-23T06:39:15.245Z,99.99
2019-02-23T06:40:15.154Z,99.99
2019-02-23T06:41:15.094Z,99.99
2019-02-23T06:42:15.033Z,99.99
2019-02-23T06:43:14.973Z,99.99
2019-02-23T06:44:14.945Z,99.99
2019-02-23T06:45:14.853Z,99.99
2019-02-23T06:46:14.795Z,99.99
2019-02-23T06:47:14.734Z,99.99
2019-02-23T06:48:14.674Z,99.99
2019-02-23T06:49:14.645Z,99.99
2019-02-23T06:50:14.554Z,99.99
2019-02-23T06:51:14.494Z,99.99
2019-02-23T06:52:14.434Z,99.99
2019-02-23T06:53:14.374Z,99.99
2019-02-23T06:54:14.367Z,99.99
2019-02-23T06:55:14.255Z,99.99
2019-02-23T06:56:14.196Z,99.99
2019-02-23T06:57:14.158Z,99.99
2019-02-23T06:58:14.076Z,99.99
2019-02-23T06:59:14.048Z,99.99
2019-02-23T07:00:13.989Z,99.99
2019-02-23T07:01:13.898Z,99.99
2019-02-23T07:02:13.837Z,99.99
2019-02-23T07:03:13.780Z,99.99
2019-02-23T07:04:13.720Z,99.99
2019-02-23T07:05:13.689Z,99.99
2019-02-23T07:06:13.639Z,99.99
2019-02-23T07:07:13.544Z,99.99
2019-02-23T07:08:13.482Z,99.99
2019-02-23T07:09:13.425Z,99.99
2019-02-23T07:10:13.371Z,99.99
2019-02-23T07:11:13.329Z,99.99
2019-02-23T07:12:13.248Z,99.43
2019-02-23T07:13:13.190Z,97.49
2019-02-23T07:14:13.132Z,95.41
2019-02-23T07:15:13.076Z,92.76
2019-02-23T07:16:13.051Z,90.48
2019-02-23T07:17:12.961Z,88.30
2019-02-23T07:18:12.908Z,89.06
2019-02-23T07:19:12.848Z,89.72
2019-02-23T07:20:12.828Z,90.44
2019-02-23T07:21:12.740Z,90.34
2019-02-23T07:22:15.813Z,91.19
2019-02-23T07:23:12.628Z,91.57
2019-02-23T07:24:12.578Z,92.80
2019-02-23T07:25:12.520Z,91.86
2019-02-23T07:26:12.467Z,92.43
2019-02-23T07:27:12.452Z,91.67
2019-02-23T07:28:12.357Z,92.24
2019-02-23T07:29:12.301Z,92.80
2019-02-23T07:30:12.246Z,93.18
2019-02-23T07:31:12.190Z,93.75
2019-02-23T07:32:12.167Z,93.08
2019-02-23T07:33:12.114Z,92.90
2019-02-23T07:34:12.026Z,93.32
2019-02-23T07:35:11.970Z,91.19
2019-02-23T07:36:11.917Z,91.00
2019-02-23T07:37:11.862Z,90.25
2019-02-23T07:38:11.847Z,90.25
2019-02-23T07:39:11.793Z,90.53
2019-02-23T07:40:11.703Z,90.34
2019-02-23T07:41:11.671Z,90.06
2019-02-23T07:42:11.591Z,90.06
2019-02-23T07:43:11.569Z,90.44
2019-02-23T07:44:11.501Z,90.81
2019-02-23T07:45:11.427Z,91.62
2019-02-23T07:46:11.374Z,91.62
2019-02-23T07:47:11.322Z,90.58
2019-02-23T07:48:11.301Z,89.82
2019-02-23T07:49:11.217Z,89.39
2019-02-23T07:50:11.157Z,87.49
2019-02-23T07:51:11.107Z,85.78
2019-02-23T07:52:11.053Z,85.31
2019-02-23T07:53:11.031Z,84.08
2019-02-23T07:54:10.945Z,84.88
2019-02-23T07:55:10.894Z,82.51
2019-02-23T07:56:10.843Z,80.90
2019-02-23T07:57:10.821Z,79.10
2019-02-23T07:58:10.735Z,79.00
2019-02-23T07:59:10.683Z,79.14
2019-02-23T08:00:10.633Z,79.04
2019-02-23T08:01:10.613Z,78.13
2019-02-23T08:02:10.534Z,76.14
2019-02-23T08:03:10.479Z,75.19
2019-02-23T08:04:10.471Z,73.00
2019-02-23T08:05:10.380Z,73.76
2019-02-23T08:06:10.328Z,73.99
2019-02-23T08:07:10.279Z,73.61
2019-02-23T08:08:10.232Z,72.60
2019-02-23T08:09:10.222Z,73.02
2019-02-23T08:10:10.129Z,70.26
2019-02-23T08:11:10.081Z,69.12
2019-02-23T08:12:10.033Z,69.02
2019-02-23T08:13:09.983Z,69.54
2019-02-23T08:14:09.969Z,68.87
2019-02-23T08:15:09.889Z,67.25
2019-02-23T08:16:09.844Z,66.27
2019-02-23T08:17:09.798Z,66.55
2019-02-23T08:18:09.752Z,65.57
2019-02-23T08:19:09.736Z,66.36
2019-02-23T08:20:09.657Z,66.61
2019-02-23T08:21:09.611Z,66.36
2019-02-23T08:22:09.566Z,67.50
2019-02-23T08:23:09.551Z,66.74
2019-02-23T08:24:09.474Z,65.51
2019-02-23T08:25:09.430Z,66.84
2019-02-23T08:26:09.387Z,66.49
2019-02-23T08:27:09.341Z,64.78
2019-02-23T08:28:09.327Z,64.08
2019-02-23T08:29:09.284Z,65.41
2019-02-23T08:30:09.211Z,65.60
2019-02-23T08:31:09.215Z,65.38
2019-02-23T08:32:09.120Z,65.19
2019-02-23T08:33:09.077Z,66.36
2019-02-23T08:34:09.035Z,65.99
2019-02-23T08:35:08.991Z,65.73
2019-02-23T08:36:08.999Z,64.78
2019-02-23T08:37:08.984Z,65.16
2019-02-23T08:38:08.861Z,64.05
2019-02-23T08:39:08.821Z,64.24
2019-02-23T08:40:08.777Z,63.42
2019-02-23T08:41:08.765Z,62.65
2019-02-23T08:42:08.797Z,60.85
2019-02-23T08:43:08.651Z,60.27
2019-02-23T08:44:08.608Z,60.97
2019-02-23T08:45:08.596Z,61.25
2019-02-23T08:46:08.528Z,60.33
2019-02-23T08:47:08.532Z,59.64
2019-02-23T08:48:08.458Z,59.26
2019-02-23T08:49:08.399Z,58.02
2019-02-23T08:50:08.438Z,57.86
2019-02-23T08:51:08.316Z,58.81
2019-02-23T08:52:08.279Z,58.33
2019-02-23T08:53:08.234Z,57.76
2019-02-23T08:54:08.193Z,58.33
2019-02-23T08:55:08.241Z,58.94
2019-02-23T08:56:08.113Z,58.29
2019-02-23T08:57:08.072Z,55.88
2019-02-23T08:58:08.033Z,55.31
2019-02-23T08:59:07.990Z,56.17
2019-02-23T09:00:07.982Z,55.98
2019-02-23T09:01:07.908Z,55.28
2019-02-23T09:02:07.885Z,56.93
2019-02-23T09:03:07.829Z,55.72
2019-02-23T09:04:07.788Z,53.41
2019-02-23T09:05:07.772Z,53.97
2019-02-23T09:06:07.740Z,54.64
2019-02-23T09:07:07.671Z,54.77
2019-02-23T09:08:07.628Z,55.91
2019-02-23T09:09:08.269Z,54.79
2019-02-23T09:10:07.592Z,53.65
2019-02-23T09:11:07.508Z,52.16
2019-02-23T09:12:07.491Z,53.41
2019-02-23T09:13:07.429Z,54.04
2019-02-23T09:14:07.389Z,54.24
2019-02-23T09:15:07.401Z,54.45
2019-02-23T09:16:07.308Z,55.50
2019-02-23T09:17:07.269Z,54.45
2019-02-23T09:18:07.228Z,54.38
2019-02-23T09:19:07.214Z,54.25
2019-02-23T09:20:07.181Z,53.89
2019-02-23T09:21:07.112Z,52.20
2019-02-23T09:22:07.071Z,51.93
2019-02-23T09:23:07.029Z,49.76
2019-02-23T09:24:06.995Z,46.94
2019-02-23T09:25:06.984Z,46.99
2019-02-23T09:26:06.946Z,48.59
2019-02-23T09:27:06.872Z,50.18
2019-02-23T09:28:06.833Z,51.33
2019-02-23T09:29:06.799Z,52.07
2019-02-23T09:30:06.760Z,51.37
2019-02-23T09:31:06.757Z,52.68
2019-02-23T09:32:06.684Z,54.30
2019-02-23T09:33:06.638Z,54.66
2019-02-23T09:34:06.599Z,54.94
2019-02-23T09:35:06.607Z,55.61
2019-02-23T09:36:06.587Z,55.22
2019-02-23T09:37:06.480Z,55.90
2019-02-23T09:38:17.265Z,55.90
2019-02-23T09:40:38.468Z,55.63
2019-02-23T09:41:38.485Z,54.71
2019-02-23T09:42:38.370Z,53.95
2019-02-23T09:43:38.347Z,53.38
2019-02-23T09:44:38.255Z,53.85
2019-02-23T09:45:38.385Z,54.04
2019-02-23T09:46:38.256Z,54.04
2019-02-23T09:47:38.137Z,54.04
2019-02-23T09:48:38.137Z,53.66
2019-02-23T09:49:38.040Z,54.71
2019-02-23T09:50:38.022Z,53.73
2019-02-23T09:51:38.028Z,54.49
2019-02-23T09:52:37.908Z,54.21
2019-02-23T09:53:37.898Z,54.88
2019-02-23T09:54:37.897Z,54.94
2019-02-23T09:55:37.779Z,55.73
2019-02-23T09:56:37.781Z,55.04
2019-02-23T09:57:37.759Z,55.61
2019-02-23T09:58:37.749Z,55.70
2019-02-23T09:59:40.073Z,56.09
2019-02-23T10:00:37.627Z,56.75
2019-02-23T10:01:37.558Z,56.75
2019-02-23T10:02:37.553Z,56.24
2019-02-23T10:03:37.508Z,56.63
2019-02-23T10:04:37.428Z,57.65
2019-02-23T10:05:38.239Z,58.50
2019-02-23T10:06:37.399Z,59.17
2019-02-23T10:07:37.300Z,59.55
2019-02-23T10:08:37.279Z,59.74
2019-02-23T10:09:37.193Z,59.83
2019-02-23T10:10:37.186Z,59.45
2019-02-23T10:11:37.156Z,59.20
2019-02-23T10:12:37.068Z,58.79
2019-02-23T10:13:37.035Z,59.27
2019-02-23T10:14:36.948Z,60.15
2019-02-23T10:15:36.948Z,60.24
2019-02-23T10:16:36.927Z,58.47
2019-02-23T10:17:36.826Z,58.40
2019-02-23T10:18:36.807Z,57.38
2019-02-23T10:19:36.714Z,55.19
2019-02-23T10:20:36.708Z,55.12
2019-02-23T10:21:36.712Z,55.12
2019-02-23T10:22:39.394Z,55.46
2019-02-23T10:23:36.589Z,53.70
2019-02-23T10:24:36.483Z,50.71
2019-02-23T10:25:36.479Z,49.59
2019-02-23T10:26:36.444Z,51.28
2019-02-23T10:27:36.438Z,53.47
2019-02-23T10:28:36.316Z,53.38
2019-02-23T10:29:36.242Z,53.73
2019-02-23T10:30:36.238Z,54.68
2019-02-23T10:31:36.198Z,54.18
2019-02-23T10:32:36.210Z,55.07
2019-02-23T10:33:38.452Z,54.78
2019-02-23T10:34:36.002Z,54.97
2019-02-23T10:35:36.090Z,53.44
2019-02-23T10:36:35.959Z,54.02
2019-02-23T10:37:35.966Z,53.80
2019-02-23T10:38:35.884Z,53.73
2019-02-23T10:39:35.765Z,53.70
2019-02-23T10:40:35.769Z,53.80
2019-02-23T10:41:35.729Z,53.39
2019-02-23T10:42:35.726Z,53.87
2019-02-23T10:43:35.667Z,53.96
2019-02-23T10:44:35.525Z,54.25
2019-02-23T10:45:35.524Z,54.22
2019-02-23T10:46:35.480Z,54.89
2019-02-23T10:47:35.612Z,54.86
2019-02-23T10:48:35.364Z,55.52
2019-02-23T10:49:35.282Z,56.88
2019-02-23T10:50:35.288Z,57.29
2019-02-23T10:51:35.253Z,56.53
2019-02-23T10:52:36.037Z,56.72
2019-02-23T10:53:35.135Z,55.01
2019-02-23T10:54:35.254Z,54.91
2019-02-23T10:55:35.006Z,54.32
2019-02-23T10:56:34.930Z,53.91
2019-02-23T10:57:35.021Z,55.24
2019-02-23T10:58:34.891Z,56.38
2019-02-23T10:59:34.803Z,57.30
2019-02-23T11:00:34.768Z,57.90
2019-02-23T11:01:34.689Z,58.37
2019-02-23T11:02:34.771Z,58.03
2019-02-23T11:03:34.576Z,56.63
2019-02-23T11:04:34.576Z,56.63
2019-02-23T11:05:34.532Z,54.75
2019-02-23T11:06:34.445Z,53.70
2019-02-23T11:07:34.451Z,54.37
2019-02-23T11:08:34.344Z,54.49
2019-02-23T11:09:34.342Z,53.13
2019-02-23T11:10:34.290Z,52.44
2019-02-23T11:11:34.217Z,52.41
2019-02-23T11:12:34.232Z,52.96
2019-02-23T11:13:34.100Z,53.72
2019-02-23T11:14:34.068Z,53.81
2019-02-23T11:15:33.969Z,54.57
2019-02-23T11:16:34.058Z,54.67
2019-02-23T11:17:33.867Z,55.50
2019-02-23T11:18:33.858Z,56.45
2019-02-23T11:19:33.817Z,56.73
2019-02-23T11:20:33.936Z,57.87
2019-02-23T11:21:33.696Z,58.44
2019-02-23T11:22:33.632Z,58.35
2019-02-23T11:23:43.541Z,57.68
2019-02-23T11:24:33.518Z,57.50
2019-02-23T11:25:33.585Z,57.40
2019-02-23T11:26:33.466Z,56.83
2019-02-23T11:27:33.375Z,57.40
2019-02-23T11:28:33.340Z,57.59
2019-02-23T11:29:33.254Z,56.99
2019-02-23T11:30:33.351Z,58.13
2019-02-23T11:31:33.155Z,57.56
2019-02-23T11:32:33.220Z,57.46
2019-02-23T11:33:33.106Z,57.75
2019-02-23T11:34:33.016Z,57.94
2019-02-23T11:35:32.989Z,58.13
2019-02-23T11:36:32.894Z,59.11
2019-02-23T11:37:32.986Z,58.25
2019-02-23T11:38:32.788Z,57.90
2019-02-23T11:39:32.782Z,56.92
2019-02-23T11:40:32.683Z,56.83
2019-02-23T11:41:32.750Z,55.50
2019-02-23T11:42:32.632Z,54.55
2019-02-23T11:43:32.628Z,55.21
2019-02-23T11:44:32.640Z,55.59
2019-02-23T11:45:32.428Z,56.45
2019-02-23T11:46:32.527Z,56.54
2019-02-23T11:47:32.316Z,57.68
2019-02-23T11:48:32.394Z,57.02
2019-02-23T11:49:32.266Z,56.35
2019-02-23T11:50:32.184Z,57.11
2019-02-23T11:51:32.155Z,57.43
2019-02-23T11:52:32.063Z,57.71
2019-02-23T11:53:32.159Z,57.04
2019-02-23T11:54:32.037Z,56.57
2019-02-23T11:55:31.942Z,56.29
2019-02-23T11:56:31.909Z,56.76
2019-02-23T11:57:31.825Z,57.71
2019-02-23T11:58:31.790Z,56.85
2019-02-23T11:59:31.799Z,56.48
2019-02-23T12:00:31.679Z,57.43
2019-02-23T12:01:31.588Z,56.48
2019-02-23T12:02:31.592Z,56.57
2019-02-23T12:03:31.490Z,56.12
2019-02-23T12:04:31.551Z,53.65
2019-02-23T12:05:31.440Z,53.94
2019-02-23T12:06:31.346Z,53.17
2019-02-23T12:07:31.321Z,54.03
2019-02-23T12:08:31.229Z,53.84
2019-02-23T12:09:31.315Z,54.57
2019-02-23T12:10:31.126Z,55.27
2019-02-23T12:11:31.111Z,53.91
2019-02-23T12:12:31.200Z,52.67
2019-02-23T12:13:30.990Z,52.67
2019-02-23T12:14:30.957Z,53.05
2019-02-23T12:15:30.965Z,50.77
2019-02-23T12:16:30.839Z,50.10
2019-02-23T12:17:30.759Z,48.96
2019-02-23T12:18:30.751Z,50.13
2019-02-23T12:19:30.653Z,50.70
2019-02-23T12:20:30.725Z,49.65
2019-02-23T12:21:30.606Z,48.61
2019-02-23T12:22:30.513Z,49.18
2019-02-23T12:23:30.487Z,49.46
2019-02-23T12:24:30.400Z,49.96
2019-02-23T12:25:30.484Z,49.40
2019-02-23T12:26:30.299Z,48.80
2019-02-23T12:27:30.284Z,47.25
2019-02-23T12:28:30.250Z,46.88
2019-02-23T12:29:30.156Z,47.16
2019-02-23T12:30:32.666Z,47.63
2019-02-23T12:31:30.046Z,47.63
2019-02-23T12:32:30.132Z,47.44
2019-02-23T12:33:29.925Z,47.16
2019-02-23T12:34:29.922Z,47.16
2019-02-23T12:35:29.819Z,46.59
2019-02-23T12:36:29.808Z,46.78
2019-02-23T12:37:29.799Z,47.44
2019-02-23T12:38:29.676Z,47.34
2019-02-23T12:39:29.652Z,47.63
2019-02-23T12:40:29.563Z,47.73
2019-02-23T12:41:29.648Z,47.82
2019-02-23T12:42:29.463Z,48.39
2019-02-23T12:43:29.446Z,46.88
2019-02-23T12:44:29.407Z,45.83
2019-02-23T12:45:29.333Z,46.49
2019-02-23T12:46:29.327Z,47.54
2019-02-23T12:47:29.208Z,47.09
2019-02-23T12:48:29.290Z,46.61
2019-02-23T12:49:29.091Z,46.70
2019-02-23T12:50:29.081Z,46.14
2019-02-23T12:51:29.053Z,45.28
2019-02-23T12:52:28.979Z,44.52
2019-02-23T12:53:28.963Z,44.68